Time;durP1;ratioP1;P1;durP2;ratioP2;P2;SDS_P1;SDS_P2;PMS_P1;PMS_P2;Temp;Humidity;BMP_temperature;BMP_pressure;BME280_temperature;BME280_humidity;BME280_pressure;Samples;Min_cycle;Max_cycle;Signal;HPM_P1;HPM_P2
2023/06/16 00:01:09;;;;;;;4.40;1.35;;;;;;;21.61;51.33;101604.78;7366890;19;20530;-61
2023/06/16 00:03:37;;;;;;;4.55;1.63;;;;;;;21.61;51.71;101608.31;7361732;19;20024;-62
2023/06/16 00:08:45;;;;;;;3.92;1.35;;;;;;;21.65;50.65;101604.16;7365945;19;20022;-62
2023/06/16 00:11:14;;;;;;;4.90;1.75;;;;;;;21.60;51.26;101609.31;7365971;19;20043;-61
2023/06/16 00:13:42;;;;;;;4.72;1.88;;;;;;;21.60;52.03;101609.31;7362883;19;20039;-61
2023/06/16 00:16:10;;;;;;;6.43;1.85;;;;;;;21.56;52.23;101596.56;7362425;19;20755;-61
2023/06/16 00:18:40;;;;;;;3.83;1.58;;;;;;;21.56;52.67;101599.22;7365339;19;20360;-62
2023/06/16 00:21:08;;;;;;;5.82;1.63;;;;;;;21.56;53.39;101596.56;7365922;19;20014;-62
2023/06/16 00:23:36;;;;;;;9.50;2.63;;;;;;;21.53;53.50;101596.97;7364678;19;20109;-61
2023/06/16 00:26:03;;;;;;;5.18;1.67;;;;;;;21.49;53.74;101591.19;7361676;19;20041;-61
2023/06/16 00:28:30;;;;;;;4.20;2.03;;;;;;;21.45;53.76;101592.63;7365911;19;20474;-62
2023/06/16 00:30:57;;;;;;;3.22;1.60;;;;;;;21.42;54.13;101597.59;7363408;19;20011;-60
2023/06/16 00:33:24;;;;;;;4.47;1.38;;;;;;;21.39;53.88;101598.81;7363390;19;20071;-62
2023/06/16 00:35:51;;;;;;;8.60;1.98;;;;;;;21.38;54.43;101599.03;7363873;19;20431;-61
2023/06/16 00:38:18;;;;;;;5.25;1.80;;;;;;;21.37;55.14;101597.38;7366521;19;20044;-62
2023/06/16 00:40:45;;;;;;;4.78;1.70;;;;;;;21.34;53.67;101598.59;7365166;19;20605;-60
2023/06/16 00:43:12;;;;;;;5.00;1.60;;;;;;;21.29;53.70;101606.41;7365754;19;20024;-60
2023/06/16 00:45:40;;;;;;;6.05;2.03;;;;;;;21.27;53.75;101601.28;7358614;19;20057;-62
2023/06/16 00:48:07;;;;;;;3.20;1.60;;;;;;;21.23;53.75;101596.53;7364051;19;20015;-62
2023/06/16 00:50:34;;;;;;;6.00;1.58;;;;;;;21.18;54.30;101594.44;7362052;19;20019;-61
2023/06/16 00:53:02;;;;;;;5.70;2.20;;;;;;;21.19;54.25;101595.28;7364766;19;20033;-62
2023/06/16 00:55:29;;;;;;;5.25;1.70;;;;;;;21.17;53.94;101592.00;7364556;19;20006;-62
2023/06/16 00:57:58;;;;;;;4.95;1.88;;;;;;;21.13;53.87;101588.84;7366261;19;20508;-62
2023/06/16 01:00:25;;;;;;;9.80;1.50;;;;;;;21.11;53.71;101590.91;7362448;19;20376;-61
2023/06/16 01:02:53;;;;;;;4.68;1.65;;;;;;;21.09;52.14;101592.13;7361405;19;20505;-62
2023/06/16 01:05:23;;;;;;;3.80;1.30;;;;;;;21.06;50.87;101596.06;7363001;19;20015;-61
2023/06/16 01:08:02;;;;;;;4.22;1.50;;;;;;;21.08;49.69;101593.97;7363092;19;20041;-62
2023/06/16 01:10:45;;;;;;;4.63;1.08;;;;;;;21.05;49.48;101580.19;7365268;19;20014;-62
2023/06/16 01:13:26;;;;;;;3.33;1.30;;;;;;;21.03;49.07;101584.94;7364645;19;20010;-62
2023/06/16 01:15:55;;;;;;;4.65;1.10;;;;;;;20.99;48.74;101578.31;7364322;19;20043;-62
2023/06/16 01:18:25;;;;;;;4.93;1.15;;;;;;;20.94;49.38;101584.28;7362692;19;20031;-62
2023/06/16 01:21:10;;;;;;;3.95;1.20;;;;;;;20.89;49.37;101582.22;7362806;19;20086;-62
2023/06/16 01:23:50;;;;;;;2.90;1.13;;;;;;;20.89;49.33;101581.38;7363445;19;20015;-61
2023/06/16 01:26:22;;;;;;;2.17;1.20;;;;;;;20.83;49.16;101579.50;7364538;19;20014;-63
2023/06/16 01:28:51;;;;;;;2.47;0.90;;;;;;;20.80;49.21;101583.44;7363120;19;20010;-63
2023/06/16 01:31:20;;;;;;;5.68;1.50;;;;;;;20.73;49.72;101579.91;7363886;19;20276;-61
2023/06/16 01:33:48;;;;;;;4.60;1.17;;;;;;;20.67;49.40;101574.53;7359326;19;20011;-61
2023/06/16 01:36:17;;;;;;;2.15;1.10;;;;;;;20.64;49.54;101577.59;7362611;19;20014;-61
2023/06/16 01:38:47;;;;;;;4.85;1.30;;;;;;;20.65;49.89;101576.59;7361517;19;20026;-61
2023/06/16 01:41:17;;;;;;;4.85;1.15;;;;;;;20.63;50.06;101579.44;7360458;19;20029;-62
2023/06/16 01:43:45;;;;;;;2.90;1.10;;;;;;;20.59;50.71;101567.50;7361761;19;20058;-61
2023/06/16 01:46:13;;;;;;;3.38;1.15;;;;;;;20.55;50.99;101584.16;7358857;19;20018;-62
2023/06/16 01:48:41;;;;;;;3.58;1.20;;;;;;;20.51;51.03;101574.88;7358007;19;20039;-61
2023/06/16 01:51:08;;;;;;;2.92;1.30;;;;;;;20.52;51.57;101569.31;7363812;19;20018;-61
2023/06/16 01:53:35;;;;;;;4.68;1.10;;;;;;;20.54;51.38;101569.97;7363229;19;20010;-61
2023/06/16 01:56:02;;;;;;;3.67;1.40;;;;;;;20.56;51.40;101575.13;7363390;19;20010;-62
2023/06/16 01:58:30;;;;;;;3.10;1.27;;;;;;;20.53;51.63;101559.44;7362580;19;20018;-62
2023/06/16 02:01:05;;;;;;;4.03;1.15;;;;;;;20.49;52.36;101569.72;7362306;19;20473;-61
2023/06/16 02:03:37;;;;;;;3.25;1.17;;;;;;;20.44;52.52;101558.81;7360599;19;20689;-62
2023/06/16 02:06:10;;;;;;;3.72;1.40;;;;;;;20.45;52.69;101571.16;7362600;19;20023;-61
2023/06/16 02:08:41;;;;;;;2.25;1.15;;;;;;;20.44;52.46;101567.66;7360564;19;20018;-61
2023/06/16 02:11:09;;;;;;;4.18;1.50;;;;;;;20.45;52.29;101560.47;7362046;19;20022;-60
2023/06/16 02:13:37;;;;;;;4.85;1.45;;;;;;;20.49;51.86;101564.38;7359586;19;20017;-61
2023/06/16 02:16:05;;;;;;;3.17;1.30;;;;;;;20.46;52.34;101562.13;7362569;19;20018;-62
2023/06/16 02:18:32;;;;;;;3.45;1.63;;;;;;;20.34;52.63;101564.53;7360493;19;20048;-61
2023/06/16 02:21:02;;;;;;;7.90;1.50;;;;;;;20.34;52.76;101559.19;7360470;19;20074;-61
2023/06/16 02:23:29;;;;;;;4.22;1.15;;;;;;;20.36;52.89;101556.31;7360602;19;20015;-61
2023/06/16 02:25:56;;;;;;;3.70;1.38;;;;;;;20.37;53.19;101561.44;7362066;19;20042;-61
2023/06/16 02:28:23;;;;;;;5.43;1.40;;;;;;;20.41;53.67;101564.56;7361751;19;20553;-61
2023/06/16 02:30:50;;;;;;;2.30;1.30;;;;;;;20.40;54.17;101558.38;7360927;19;20632;-61
2023/06/16 02:33:17;;;;;;;2.60;1.55;;;;;;;20.37;54.53;101558.78;7362119;19;20041;-61
2023/06/16 02:35:45;;;;;;;2.38;1.27;;;;;;;20.38;54.98;101564.94;7359217;19;20019;-63
2023/06/16 02:38:12;;;;;;;6.53;1.60;;;;;;;20.34;55.43;101561.03;7361983;19;20025;-62
2023/06/16 02:40:39;;;;;;;3.42;1.50;;;;;;;20.32;55.17;101555.88;7361724;19;20007;-62
2023/06/16 02:43:06;;;;;;;2.53;1.30;;;;;;;20.31;55.34;101561.44;7363970;19;20015;-62
2023/06/16 02:45:33;;;;;;;3.45;1.13;;;;;;;20.32;55.41;101553.19;7359917;19;20019;-61
2023/06/16 02:48:00;;;;;;;2.92;1.20;;;;;;;20.31;55.61;101558.75;7360514;19;20018;-62
2023/06/16 02:50:27;;;;;;;4.78;1.65;;;;;;;20.28;55.43;101551.09;7357069;19;20024;-61
2023/06/16 02:52:55;;;;;;;4.20;1.55;;;;;;;20.24;54.90;101553.34;7362083;19;20018;-62
2023/06/16 02:55:22;;;;;;;8.00;1.70;;;;;;;20.22;55.13;101554.53;7357988;19;20089;-61
2023/06/16 02:57:49;;;;;;;5.43;1.58;;;;;;;20.23;55.24;101558.88;7362954;19;20094;-61
2023/06/16 03:00:18;;;;;;;5.90;1.98;;;;;;;20.24;54.59;101542.66;7367028;19;20028;-64
2023/06/16 03:02:45;;;;;;;4.68;1.42;;;;;;;20.23;54.53;101534.81;7366964;19;20014;-61
2023/06/16 03:05:12;;;;;;;4.80;1.75;;;;;;;20.24;54.77;101531.97;7367532;19;20018;-61
2023/06/16 03:07:42;;;;;;;5.05;1.55;;;;;;;20.21;54.33;101535.03;7368730;19;20014;-61
2023/06/16 03:10:10;;;;;;;4.35;1.80;;;;;;;20.24;54.22;101533.81;7369575;19;20022;-61
2023/06/16 03:12:37;;;;;;;2.92;1.60;;;;;;;20.20;54.04;101535.22;7368429;19;20019;-61
2023/06/16 03:15:04;;;;;;;4.45;1.73;;;;;;;20.17;53.62;101532.94;7367665;19;20090;-62
2023/06/16 03:17:33;;;;;;;4.68;1.80;;;;;;;20.17;54.68;101530.25;7362620;19;20231;-61
2023/06/16 03:20:00;;;;;;;6.05;2.10;;;;;;;20.15;54.44;101533.16;7366585;19;20018;-62
2023/06/16 03:22:27;;;;;;;4.35;1.67;;;;;;;20.14;54.36;101528.00;7366801;19;20666;-62
2023/06/16 03:24:54;;;;;;;2.97;1.50;;;;;;;20.12;54.05;101525.50;7364862;19;20093;-62
2023/06/16 03:27:21;;;;;;;4.28;1.65;;;;;;;20.16;54.07;101528.63;7367658;19;20117;-62
2023/06/16 03:29:48;;;;;;;4.15;1.40;;;;;;;20.15;53.99;101526.97;7367851;19;20010;-62
2023/06/16 03:32:15;;;;;;;5.22;1.67;;;;;;;20.12;54.34;101525.50;7365126;19;20027;-63
2023/06/16 03:34:44;;;;;;;3.70;2.00;;;;;;;20.12;54.96;101522.84;7364620;19;20023;-62
2023/06/16 03:37:11;;;;;;;3.67;1.90;;;;;;;20.12;54.20;101522.84;7369253;19;20105;-62
2023/06/16 03:39:40;;;;;;;5.82;2.47;;;;;;;20.10;54.26;101527.56;7366989;19;20045;-61
2023/06/16 03:42:08;;;;;;;3.83;1.80;;;;;;;20.08;54.28;101519.75;7366443;19;20031;-61
2023/06/16 03:44:35;;;;;;;3.58;1.92;;;;;;;20.10;53.97;101524.06;7364123;19;20023;-61
2023/06/16 03:47:02;;;;;;;4.32;1.92;;;;;;;20.08;53.91;101527.75;7367550;19;20011;-61
2023/06/16 03:49:29;;;;;;;4.05;2.15;;;;;;;20.07;54.29;101525.28;7363367;19;20101;-62
2023/06/16 03:51:57;;;;;;;5.25;1.83;;;;;;;20.04;54.42;101525.69;7363401;19;20600;-62
2023/06/16 03:54:26;;;;;;;3.75;1.63;;;;;;;19.98;53.90;101521.97;7366395;19;20078;-61
2023/06/16 03:56:53;;;;;;;4.60;1.60;;;;;;;19.94;53.97;101526.06;7363292;19;20380;-62
2023/06/16 03:59:20;;;;;;;5.43;1.67;;;;;;;19.92;53.80;101528.09;7367282;19;20079;-61
2023/06/16 04:01:51;;;;;;;2.85;1.50;;;;;;;19.88;53.88;101526.00;7362434;19;20010;-62
2023/06/16 04:04:18;;;;;;;2.83;1.67;;;;;;;19.88;53.89;101531.34;7363950;19;20756;-62
2023/06/16 04:06:48;;;;;;;5.85;1.70;;;;;;;19.86;54.19;101530.72;7363677;19;20014;-62
2023/06/16 04:09:15;;;;;;;2.88;1.45;;;;;;;19.83;54.11;101523.91;7365150;19;20447;-62
2023/06/16 04:11:42;;;;;;;3.63;1.88;;;;;;;19.83;54.12;101523.91;7365547;19;20091;-62
2023/06/16 04:14:10;;;;;;;6.80;2.15;;;;;;;19.87;53.90;101530.50;7366205;19;20794;-64
2023/06/16 04:16:40;;;;;;;4.15;1.52;;;;;;;19.86;54.04;101530.72;7364107;19;20018;-63
2023/06/16 04:19:07;;;;;;;5.88;1.77;;;;;;;19.84;53.92;101528.25;7363382;19;20022;-62
2023/06/16 04:21:34;;;;;;;4.53;2.03;;;;;;;19.82;54.29;101535.63;7364165;19;20625;-63
2023/06/16 04:24:01;;;;;;;3.58;1.88;;;;;;;19.81;54.12;101531.28;7363867;19;20007;-62
2023/06/16 04:26:29;;;;;;;4.47;1.63;;;;;;;19.82;54.27;101532.94;7363819;19;20015;-61
2023/06/16 04:28:56;;;;;;;3.03;1.33;;;;;;;19.80;54.32;101526.16;7362928;19;20006;-61
2023/06/16 04:31:28;;;;;;;3.88;1.80;;;;;;;19.79;54.65;101532.53;7364833;19;20130;-61
2023/06/16 04:33:57;;;;;;;10.40;2.40;;;;;;;19.78;55.64;101529.03;7362700;19;20490;-61
2023/06/16 04:36:29;;;;;;;3.78;2.08;;;;;;;19.78;55.14;101528.19;7365043;19;20267;-61
2023/06/16 04:38:58;;;;;;;8.93;2.35;;;;;;;19.74;55.34;101522.44;7366730;19;20031;-62
2023/06/16 04:41:25;;;;;;;4.38;2.08;;;;;;;19.73;55.34;101526.13;7365623;19;20094;-61
2023/06/16 04:43:52;;;;;;;6.93;3.40;;;;;;;19.70;55.50;101528.38;7363933;19;20026;-62
2023/06/16 04:46:19;;;;;;;7.22;2.70;;;;;;;19.70;55.63;101525.69;7365246;19;20011;-61
2023/06/16 04:48:47;;;;;;;4.60;2.30;;;;;;;19.71;55.93;101519.34;7361553;19;20014;-63
2023/06/16 04:51:14;;;;;;;5.03;2.53;;;;;;;19.72;55.90;101520.97;7363137;19;20315;-62
2023/06/16 04:53:43;;;;;;;5.10;2.45;;;;;;;19.69;55.74;101524.03;7361891;19;20573;-62
2023/06/16 04:56:14;;;;;;;7.95;2.60;;;;;;;19.64;56.09;101520.13;7361941;19;20081;-62
2023/06/16 04:58:44;;;;;;;5.78;3.20;;;;;;;19.62;55.98;101526.66;7364604;19;20067;-63
2023/06/16 05:01:12;;;;;;;8.30;3.03;;;;;;;19.60;56.27;101524.19;7364168;19;21729;-62
2023/06/16 05:03:40;;;;;;;6.70;2.80;;;;;;;19.59;56.42;101529.72;7364575;19;20014;-61
2023/06/16 05:06:07;;;;;;;9.00;2.42;;;;;;;19.59;56.66;101529.72;7366820;19;20410;-61
2023/06/16 05:08:34;;;;;;;6.95;3.15;;;;;;;19.64;55.88;101528.13;7366210;19;20768;-62
2023/06/16 05:11:02;;;;;;;10.52;3.35;;;;;;;19.63;55.96;101523.78;7358693;19;20022;-62
2023/06/16 05:13:30;;;;;;;5.68;2.85;;;;;;;19.57;56.17;101523.75;7365754;19;20395;-61
2023/06/16 05:15:57;;;;;;;7.38;2.97;;;;;;;19.55;56.30;101528.47;7364268;19;20053;-61
2023/06/16 05:18:24;;;;;;;8.93;3.00;;;;;;;19.52;56.37;101526.16;7363802;19;20942;-61
2023/06/16 05:20:51;;;;;;;10.32;2.92;;;;;;;19.54;56.95;101529.47;7365087;19;20018;-62
2023/06/16 05:23:18;;;;;;;5.07;2.63;;;;;;;19.56;56.69;101524.75;7366032;19;20022;-62
2023/06/16 05:25:49;;;;;;;7.88;2.65;;;;;;;19.59;56.81;101530.56;7365780;19;20014;-62
2023/06/16 05:28:16;;;;;;;6.03;2.80;;;;;;;19.60;56.57;101520.69;7366216;19;20126;-61
2023/06/16 05:30:43;;;;;;;7.57;3.42;;;;;;;19.61;56.57;101523.16;7363307;19;20105;-62
2023/06/16 05:33:10;;;;;;;6.30;3.65;;;;;;;19.68;56.76;101525.88;7361772;19;20015;-61
2023/06/16 05:35:38;;;;;;;4.10;2.65;;;;;;;19.69;56.89;101521.38;7360214;19;20010;-61
2023/06/16 05:38:05;;;;;;;6.53;3.33;;;;;;;19.77;56.74;101529.22;7363329;19;20018;-62
2023/06/16 05:40:32;;;;;;;6.80;2.55;;;;;;;19.75;56.86;101524.09;7362673;19;20596;-62
2023/06/16 05:42:59;;;;;;;7.35;2.72;;;;;;;19.76;56.80;101530.25;7362782;19;20090;-63
2023/06/16 05:45:26;;;;;;;8.50;2.92;;;;;;;19.76;56.84;101524.91;7362959;19;20010;-63
2023/06/16 05:47:53;;;;;;;5.28;2.70;;;;;;;19.77;56.97;101531.88;7362632;19;20021;-62
2023/06/16 05:50:20;;;;;;;8.25;2.67;;;;;;;19.79;57.10;101527.19;7359661;19;20043;-62
2023/06/16 05:52:47;;;;;;;7.82;2.22;;;;;;;19.80;57.12;101527.00;7361416;19;20082;-63
2023/06/16 05:55:14;;;;;;;8.93;2.80;;;;;;;19.84;57.52;101535.44;7361850;19;20090;-63
2023/06/16 05:57:42;;;;;;;6.88;3.15;;;;;;;19.91;56.88;101539.00;7361182;19;21011;-62
2023/06/16 06:00:09;;;;;;;6.07;2.70;;;;;;;20.02;56.80;101543.75;7362774;19;20064;-61
2023/06/16 06:02:37;;;;;;;7.53;2.58;;;;;;;20.22;56.02;101547.34;7360084;19;20041;-61
2023/06/16 06:05:04;;;;;;;5.28;2.10;;;;;;;20.36;56.17;101550.97;7361737;19;20014;-62
2023/06/16 06:07:31;;;;;;;5.50;2.70;;;;;;;20.48;56.09;101546.69;7362664;19;20508;-62
2023/06/16 06:09:58;;;;;;;5.78;2.30;;;;;;;20.49;55.62;101543.81;7362034;19;20033;-62
2023/06/16 06:12:26;;;;;;;5.43;2.10;;;;;;;20.71;54.88;101547.19;7361107;19;20014;-62
2023/06/16 06:14:53;;;;;;;5.45;2.33;;;;;;;20.94;54.74;101544.13;7355541;19;20018;-60
2023/06/16 06:17:20;;;;;;;4.88;2.25;;;;;;;20.95;54.69;101542.28;7360498;19;20014;-61
2023/06/16 06:19:48;;;;;;;5.57;2.20;;;;;;;20.88;54.27;101539.59;7361500;19;20598;-61
2023/06/16 06:22:15;;;;;;;6.03;2.25;;;;;;;20.79;54.85;101547.00;7362504;19;20014;-62
2023/06/16 06:24:42;;;;;;;4.95;2.00;;;;;;;20.74;55.07;101543.28;7361388;19;20089;-61
2023/06/16 06:27:10;;;;;;;4.40;1.65;;;;;;;20.73;54.87;101555.00;7362138;19;20087;-62
2023/06/16 06:29:37;;;;;;;6.80;1.77;;;;;;;20.80;53.82;101553.16;7361100;19;20041;-61
2023/06/16 06:32:07;;;;;;;2.70;1.48;;;;;;;20.90;53.77;101558.97;7360889;19;20030;-62
2023/06/16 06:34:35;;;;;;;3.25;1.70;;;;;;;20.96;52.54;101557.31;7366408;19;20023;-62
2023/06/16 06:37:02;;;;;;;3.85;1.70;;;;;;;20.84;52.85;101554.41;7367051;19;21128;-62
2023/06/16 06:39:29;;;;;;;6.00;1.85;;;;;;;20.83;52.64;101560.78;7366986;19;20774;-61
2023/06/16 06:41:56;;;;;;;4.97;1.58;;;;;;;20.95;53.01;101555.66;7371662;19;21292;-61
2023/06/16 06:44:23;;;;;;;6.50;1.80;;;;;;;21.11;52.93;101564.16;7368882;19;20011;-64
2023/06/16 06:46:50;;;;;;;9.77;4.28;;;;;;;21.17;52.21;101557.19;7368943;19;20026;-65
2023/06/16 06:49:18;;;;;;;11.60;2.47;;;;;;;21.18;52.26;101570.34;7366097;19;20011;-61
2023/06/16 06:51:45;;;;;;;8.15;1.90;;;;;;;21.14;52.44;101565.59;7368268;19;20010;-62
2023/06/16 06:54:13;;;;;;;5.40;1.60;;;;;;;21.16;51.93;101571.59;7370442;19;20031;-62
2023/06/16 06:56:40;;;;;;;6.82;1.60;;;;;;;21.23;50.50;101569.78;7367346;19;20011;-62
2023/06/16 06:59:08;;;;;;;6.43;2.45;;;;;;;21.23;50.15;101575.91;7364830;19;20045;-62
2023/06/16 07:01:35;;;;;;;5.40;1.70;;;;;;;21.21;50.20;101571.81;7369394;19;20098;-63
2023/06/16 07:04:04;;;;;;;8.70;1.50;;;;;;;21.20;50.51;101570.97;7367639;19;20055;-62
2023/06/16 07:06:32;;;;;;;7.35;1.55;;;;;;;21.22;50.10;101578.81;7366856;19;20041;-61
2023/06/16 07:08:59;;;;;;;3.25;1.40;;;;;;;21.25;50.21;101584.59;7366904;19;20178;-61
2023/06/16 07:11:27;;;;;;;4.43;1.45;;;;;;;21.27;49.79;101576.34;7369869;19;20011;-62
2023/06/16 07:13:54;;;;;;;2.60;1.10;;;;;;;21.31;49.43;101583.78;7367800;19;20035;-63
2023/06/16 07:16:21;;;;;;;8.45;2.28;;;;;;;21.32;49.11;101573.88;7367892;19;20950;-61
2023/06/16 07:18:48;;;;;;;3.85;1.65;;;;;;;21.39;48.50;101576.53;7366088;19;20018;-62
2023/06/16 07:21:16;;;;;;;3.55;1.10;;;;;;;21.44;48.42;101582.13;7369924;19;20021;-62
2023/06/16 07:23:43;;;;;;;8.77;1.60;;;;;;;21.44;48.94;101582.13;7369641;19;20694;-61
2023/06/16 07:26:10;;;;;;;3.10;1.05;;;;;;;21.55;46.91;101582.31;7369267;19;20479;-62
2023/06/16 07:28:38;;;;;;;4.35;1.20;;;;;;;21.57;47.76;101577.59;7369861;19;20061;-62
2023/06/16 07:31:07;;;;;;;5.72;1.58;;;;;;;21.64;47.29;101583.75;7364301;19;20026;-62
2023/06/16 07:33:35;;;;;;;6.00;1.88;;;;;;;21.72;46.53;101583.56;7369274;19;20022;-62
2023/06/16 07:36:03;;;;;;;4.47;1.30;;;;;;;21.94;46.06;101578.81;7365804;19;20069;-63
2023/06/16 07:38:30;;;;;;;4.88;1.30;;;;;;;22.23;45.23;101574.03;7368569;19;20018;-62
2023/06/16 07:40:57;;;;;;;3.75;1.35;;;;;;;22.76;44.44;101577.31;7365248;19;20035;-63
2023/06/16 07:43:25;;;;;;;3.30;1.25;;;;;;;23.87;42.21;101578.41;7367205;19;20090;-61
2023/06/16 07:45:53;;;;;;;5.03;1.13;;;;;;;25.44;38.90;101588.22;7367176;19;20011;-62
2023/06/16 07:48:20;;;;;;;7.60;0.95;;;;;;;26.31;36.57;101581.88;7369363;19;20011;-61
2023/06/16 07:50:47;;;;;;;2.83;0.88;;;;;;;26.25;34.38;101590.13;7364526;19;20328;-61
2023/06/16 07:53:15;;;;;;;4.93;1.02;;;;;;;25.87;34.66;101582.50;7368807;19;20979;-62
2023/06/16 07:55:46;;;;;;;5.53;1.00;;;;;;;25.72;35.80;101590.25;7363970;19;20086;-62
2023/06/16 07:58:15;;;;;;;3.53;0.82;;;;;;;25.37;35.08;101591.00;7366652;19;20321;-60
2023/06/16 08:00:42;;;;;;;2.35;1.10;;;;;;;25.04;36.06;101590.72;7364640;19;20022;-62
2023/06/16 08:03:10;;;;;;;3.28;0.98;;;;;;;24.80;36.61;101583.53;7365578;19;20146;-61
2023/06/16 08:05:37;;;;;;;2.90;0.98;;;;;;;24.61;36.09;101586.28;7364701;19;20051;-61
2023/06/16 08:08:04;;;;;;;4.95;0.93;;;;;;;24.43;36.89;101580.91;7364759;19;20022;-61
2023/06/16 08:10:32;;;;;;;4.00;0.95;;;;;;;24.22;36.75;101579.50;7366687;19;20105;-61
2023/06/16 08:12:59;;;;;;;2.03;0.80;;;;;;;23.95;35.88;101580.78;7366695;19;20144;-62
2023/06/16 08:15:26;;;;;;;2.95;1.00;;;;;;;23.89;36.34;101579.00;7364949;19;20022;-62
2023/06/16 08:17:53;;;;;;;3.75;1.17;;;;;;;23.97;36.06;101580.59;7366001;19;20045;-61
2023/06/16 08:20:21;;;;;;;3.28;0.90;;;;;;;24.26;36.45;101578.00;7364667;19;20011;-63
2023/06/16 08:22:48;;;;;;;2.75;0.80;;;;;;;24.44;35.88;101579.03;7365123;19;20026;-61
2023/06/16 08:25:15;;;;;;;2.85;1.02;;;;;;;24.47;36.17;101573.22;7367733;19;20018;-62
2023/06/16 08:27:43;;;;;;;3.67;0.75;;;;;;;24.42;36.19;101567.69;7364142;19;20019;-63
2023/06/16 08:30:10;;;;;;;3.97;0.80;;;;;;;24.76;35.84;101568.88;7362367;19;20025;-61
2023/06/16 08:32:37;;;;;;;2.70;0.98;;;;;;;25.61;35.16;101572.19;7360676;19;20577;-61
2023/06/16 08:35:08;;;;;;;3.85;0.95;;;;;;;26.16;33.30;101580.75;7360183;19;20569;-61
2023/06/16 08:37:36;;;;;;;6.82;1.30;;;;;;;26.62;32.44;101571.69;7365368;19;20026;-61
2023/06/16 08:40:10;;;;;;;3.72;0.98;;;;;;;26.57;32.06;101572.41;7363386;19;20015;-61
2023/06/16 08:42:38;;;;;;;4.55;1.30;;;;;;;25.96;33.33;101573.00;7363371;19;20014;-61
2023/06/16 08:45:07;;;;;;;7.00;0.90;;;;;;;25.77;34.12;101577.72;7364561;19;20015;-62
2023/06/16 08:47:37;;;;;;;5.25;1.00;;;;;;;25.55;34.23;101588.25;7364533;19;20482;-62
2023/06/16 08:50:07;;;;;;;5.80;1.45;;;;;;;25.21;35.90;101570.13;7362991;19;20510;-61
2023/06/16 08:52:39;;;;;;;2.58;0.90;;;;;;;24.91;35.73;101567.47;7367896;19;20467;-61
2023/06/16 08:55:13;;;;;;;3.00;1.27;;;;;;;24.90;35.91;101571.19;7363919;19;20056;-62
2023/06/16 08:57:46;;;;;;;7.15;1.25;;;;;;;24.84;36.56;101571.28;7365893;19;20539;-62
2023/06/16 09:00:15;;;;;;;4.55;1.40;;;;;;;24.80;36.76;101568.19;7367616;19;20052;-62
2023/06/16 09:02:48;;;;;;;4.03;1.55;;;;;;;24.74;36.40;101565.63;7365407;19;20015;-61
2023/06/16 09:05:18;;;;;;;4.55;1.00;;;;;;;24.64;36.36;101571.53;7362818;19;20040;-62
2023/06/16 09:07:47;;;;;;;2.65;0.90;;;;;;;24.83;35.33;101573.16;7363548;19;20045;-62
2023/06/16 09:10:16;;;;;;;2.67;0.88;;;;;;;24.98;35.60;101570.88;7365039;19;20018;-62
2023/06/16 09:12:44;;;;;;;8.15;1.23;;;;;;;25.06;36.24;101569.72;7341183;19;20013;-62
2023/06/16 09:15:12;;;;;;;5.63;1.00;;;;;;;24.93;36.25;101565.38;7360473;19;20023;-61
2023/06/16 09:17:40;;;;;;;4.63;1.50;;;;;;;24.77;37.92;101554.38;7352709;19;20102;-62
2023/06/16 09:20:19;;;;;;;5.07;1.17;;;;;;;24.66;37.98;101558.66;7349745;19;20011;-63
2023/06/16 09:22:49;;;;;;;2.42;0.80;;;;;;;24.52;37.80;101551.81;7362371;19;20002;-62
2023/06/16 09:25:18;;;;;;;4.20;1.10;;;;;;;24.46;38.04;101556.25;7362116;19;20846;-61
2023/06/16 09:27:50;;;;;;;7.78;1.45;;;;;;;24.46;38.32;101558.94;7363483;19;20726;-61
2023/06/16 09:30:20;;;;;;;4.13;1.27;;;;;;;24.42;38.27;101548.84;7361095;19;20078;-61
2023/06/16 09:32:51;;;;;;;4.20;1.02;;;;;;;24.37;38.88;101554.09;7358026;19;20018;-61
2023/06/16 09:35:23;;;;;;;4.57;1.00;;;;;;;24.31;39.27;101545.03;7357690;19;20018;-62
2023/06/16 09:37:53;;;;;;;7.35;1.00;;;;;;;24.33;38.76;101548.31;7358864;19;20021;-63
2023/06/16 09:40:26;;;;;;;5.95;1.10;;;;;;;24.40;38.95;101546.38;7356769;19;20019;-63
2023/06/16 09:42:57;;;;;;;4.50;1.20;;;;;;;24.44;39.17;101544.03;7359523;19;20018;-62
2023/06/16 09:45:30;;;;;;;2.75;0.80;;;;;;;24.48;38.37;101542.56;7362169;19;20022;-61
2023/06/16 09:48:03;;;;;;;6.30;0.90;;;;;;;24.62;37.47;101558.31;7358608;19;20018;-62
2023/06/16 09:50:32;;;;;;;3.53;0.90;;;;;;;24.68;36.49;101548.50;7352965;19;20018;-63
2023/06/16 09:53:05;;;;;;;4.93;1.00;;;;;;;24.59;37.03;101547.16;7359775;19;20025;-61
2023/06/16 09:55:36;;;;;;;1.83;0.80;;;;;;;24.63;37.30;101542.97;7359099;19;20109;-61
2023/06/16 09:58:03;;;;;;;3.15;1.15;;;;;;;24.67;37.31;101545.00;7358348;19;20037;-62
2023/06/16 10:00:32;;;;;;;2.40;0.85;;;;;;;24.76;37.99;101540.09;7360420;19;20033;-62
2023/06/16 10:03:02;;;;;;;2.47;0.80;;;;;;;24.91;36.58;101545.91;7358596;19;20002;-62
2023/06/16 10:05:34;;;;;;;5.75;1.40;;;;;;;24.94;36.87;101537.34;7362051;19;20992;-62
2023/06/16 10:08:04;;;;;;;2.50;1.10;;;;;;;24.91;36.32;101535.13;7357511;19;20025;-61
2023/06/16 10:10:33;;;;;;;4.05;1.00;;;;;;;24.87;36.69;101525.88;7360881;19;20367;-62
2023/06/16 10:13:05;;;;;;;3.67;0.90;;;;;;;24.92;36.40;101536.78;7359402;19;20018;-61
2023/06/16 10:15:37;;;;;;;9.82;1.27;;;;;;;25.10;36.03;101531.31;7357750;19;20025;-61
2023/06/16 10:18:06;;;;;;;;;;;;;;;25.14;35.86;101531.69;7358880;19;20887;-62
2023/06/16 10:20:39;;;;;;;2.70;1.00;;;;;;;25.19;35.73;101529.13;7355760;19;19918;-64
2023/06/16 10:23:08;;;;;;;4.20;1.40;;;;;;;25.21;35.49;101521.59;7356655;19;20038;-61
2023/06/16 10:25:36;;;;;;;4.13;1.08;;;;;;;25.28;34.92;101518.81;7341335;19;20028;-61
2023/06/16 10:28:07;;;;;;;4.32;0.90;;;;;;;25.30;35.68;101514.00;7358814;19;20017;-62
2023/06/16 10:30:35;;;;;;;4.17;1.53;;;;;;;25.32;35.36;101510.03;7356770;19;20043;-62
2023/06/16 10:33:16;;;;;;;4.00;1.20;;;;;;;25.45;35.29;101511.66;7351013;19;20015;-62
2023/06/16 10:35:54;;;;;;;2.83;0.88;;;;;;;25.63;35.00;101513.47;7357702;19;20017;-63
2023/06/16 10:38:41;;;;;;;4.40;1.00;;;;;;;25.66;34.70;101512.97;7357120;19;20015;-62
2023/06/16 10:41:14;;;;;;;5.82;1.33;;;;;;;25.68;35.03;101510.88;7356599;19;20983;-62
2023/06/16 10:43:42;;;;;;;2.05;0.98;;;;;;;25.69;34.56;101501.75;7358667;19;20030;-62
2023/06/16 10:46:20;;;;;;;7.53;1.95;;;;;;;25.81;34.85;101489.03;7362986;19;20024;-62
2023/06/16 10:48:57;;;;;;;3.70;1.10;;;;;;;25.80;34.83;101492.81;7353699;19;20118;-65
2023/06/16 10:51:41;;;;;;;5.18;1.05;;;;;;;25.80;34.45;101490.13;7357961;19;20030;-61
2023/06/16 10:54:09;;;;;;;4.43;0.90;;;;;;;25.82;34.05;101486.13;7360727;19;20018;-62
2023/06/16 10:57:00;;;;;;;1.73;0.90;;;;;;;25.82;34.17;101491.50;7356935;19;20963;-62
2023/06/16 10:59:51;;;;;;;3.90;1.10;;;;;;;25.85;34.90;101482.94;7355455;19;20021;-62
2023/06/16 11:02:22;;;;;;;1.92;1.08;;;;;;;25.93;33.94;101485.28;7353858;19;20010;-63
2023/06/16 11:05:09;;;;;;;2.85;0.80;;;;;;;25.89;34.37;101489.50;7357850;19;20047;-61
2023/06/16 11:07:39;;;;;;;3.60;1.00;;;;;;;25.82;34.47;101477.19;7354110;19;20022;-61
2023/06/16 11:10:09;;;;;;;3.28;0.70;;;;;;;25.82;34.82;101485.28;7355417;19;20483;-62
2023/06/16 11:12:37;;;;;;;2.15;1.10;;;;;;;25.83;35.53;101478.84;7355824;19;20059;-61
2023/06/16 11:15:05;;;;;;;4.47;1.45;;;;;;;25.79;35.38;101483.09;7353288;19;21716;-62
2023/06/16 11:17:35;;;;;;;4.30;1.10;;;;;;;25.84;35.64;101486.72;7351858;19;21738;-62
2023/06/16 11:20:06;;;;;;;4.13;1.15;;;;;;;25.85;35.47;101484.84;7360634;19;20015;-62
2023/06/16 11:22:34;;;;;;;4.18;1.20;;;;;;;25.83;35.76;101482.38;7362017;19;20114;-61
2023/06/16 11:25:03;;;;;;;3.95;1.00;;;;;;;25.85;35.46;101474.03;7366881;19;21207;-62
2023/06/16 11:27:31;;;;;;;4.60;1.00;;;;;;;25.84;35.42;101477.78;7360841;19;20011;-61
2023/06/16 11:30:01;;;;;;;6.18;1.52;;;;;;;25.83;35.67;101479.66;7362578;19;20029;-61
2023/06/16 11:32:34;;;;;;;6.05;1.35;;;;;;;25.91;36.05;101473.06;7360958;19;20026;-62
2023/06/16 11:35:03;;;;;;;3.75;0.90;;;;;;;25.91;36.03;101471.19;7363920;19;20065;-62